Time;durP1;ratioP1;P1;durP2;ratioP2;P2;SDS_P1;SDS_P2;PMS_P1;PMS_P2;Temp;Humidity;BMP_temperature;BMP_pressure;BME280_temperature;BME280_humidity;BME280_pressure;Samples;Min_cycle;Max_cycle;Signal;HPM_P1;HPM_P2
2021/12/06 00:00:24;;;;;;;17.98;9.85;;;;;;;0.81;84.01;95434.44;5088013;28;20060;-72
2021/12/06 00:02:54;;;;;;;16.33;9.68;;;;;;;0.76;84.03;95433.38;5088569;28;20052;-72
2021/12/06 00:05:21;;;;;;;17.60;9.57;;;;;;;0.75;84.25;95428.31;5087788;28;20047;-72
2021/12/06 00:07:47;;;;;;;17.73;9.15;;;;;;;0.73;84.34;95428.59;5088236;28;20558;-72
2021/12/06 00:10:14;;;;;;;17.08;9.57;;;;;;;0.71;84.71;95430.72;5087623;28;20450;-70
2021/12/06 00:12:42;;;;;;;17.75;9.05;;;;;;;0.71;84.58;95430.72;5088109;28;20047;-72
2021/12/06 00:15:10;;;;;;;19.25;9.73;;;;;;;0.73;84.55;95436.63;5087586;28;20054;-72
2021/12/06 00:17:38;;;;;;;16.52;9.20;;;;;;;0.75;84.62;95431.78;5088297;28;20044;-72
2021/12/06 00:20:08;;;;;;;17.90;8.85;;;;;;;0.77;84.51;95434.97;5087924;28;20052;-71
2021/12/06 00:22:34;;;;;;;18.15;9.43;;;;;;;0.74;84.44;95438.22;5087555;28;20536;-71
2021/12/06 00:25:02;;;;;;;17.15;9.27;;;;;;;0.79;84.69;95437.41;5087473;28;20089;-72
2021/12/06 00:27:29;;;;;;;16.02;8.95;;;;;;;0.78;84.50;95435.78;5087673;28;20052;-71
2021/12/06 00:29:55;;;;;;;20.30;9.55;;;;;;;0.81;84.48;95445.94;5087822;28;20048;-72
2021/12/06 00:32:23;;;;;;;16.60;8.93;;;;;;;0.84;84.51;95440.03;5087438;28;20052;-71
2021/12/06 00:34:51;;;;;;;18.30;8.90;;;;;;;0.92;84.24;95447.47;5088025;28;20044;-72
2021/12/06 00:37:19;;;;;;;16.52;8.50;;;;;;;0.99;84.10;95456.03;5087452;28;20052;-71
2021/12/06 00:39:48;;;;;;;15.27;8.70;;;;;;;1.03;84.11;95453.56;5087792;28;20051;-71
2021/12/06 00:42:15;;;;;;;17.30;9.23;;;;;;;1.04;84.06;95460.53;5087565;28;20055;-71
2021/12/06 00:44:41;;;;;;;16.25;8.60;;;;;;;1.06;84.14;95455.69;5087694;28;20055;-70
2021/12/06 00:47:09;;;;;;;16.17;8.70;;;;;;;1.13;84.21;95458.84;5087452;28;20052;-69
2021/12/06 00:49:36;;;;;;;15.45;8.25;;;;;;;1.19;84.03;95465.78;5087797;28;20040;-70
2021/12/06 00:52:04;;;;;;;17.38;9.20;;;;;;;1.25;84.05;95461.16;5087131;28;20059;-70
2021/12/06 00:54:34;;;;;;;16.30;8.32;;;;;;;1.32;83.45;95455.50;5087961;28;20537;-70
2021/12/06 00:57:01;;;;;;;14.57;7.90;;;;;;;1.36;82.98;95456.53;5087467;28;20130;-70
2021/12/06 00:59:28;;;;;;;14.63;8.40;;;;;;;1.37;82.76;95464.31;5099496;28;20048;-70
2021/12/06 01:01:54;;;;;;;14.55;8.38;;;;;;;1.34;82.82;95470.22;5108002;28;20074;-70
2021/12/06 01:04:21;;;;;;;15.23;8.70;;;;;;;1.28;82.96;95477.50;5107625;28;20043;-72
2021/12/06 01:06:47;;;;;;;15.43;8.15;;;;;;;1.33;83.10;95473.19;5107783;28;20055;-72
2021/12/06 01:09:15;;;;;;;15.82;8.77;;;;;;;1.35;83.31;95479.06;5107676;28;20054;-72
2021/12/06 01:11:42;;;;;;;14.38;8.65;;;;;;;1.41;83.43;95486.00;5107959;28;20043;-70
2021/12/06 01:14:08;;;;;;;15.40;8.57;;;;;;;1.42;83.42;95482.25;5106754;28;20047;-70
2021/12/06 01:16:35;;;;;;;15.05;8.10;;;;;;;1.45;83.49;95477.09;5107998;28;20425;-72
2021/12/06 01:19:01;;;;;;;16.20;8.10;;;;;;;1.51;83.38;95469.81;5107913;28;20494;-72
2021/12/06 01:21:39;;;;;;;15.25;8.48;;;;;;;1.55;82.70;95468.97;5087127;28;20131;-70
2021/12/06 01:24:07;;;;;;;16.45;9.45;;;;;;;1.58;82.29;95475.66;5087111;28;20044;-69
2021/12/06 01:26:55;;;;;;;19.38;9.98;;;;;;;1.50;82.31;95478.94;5088928;28;20524;-70
2021/12/06 01:32:15;;;;;;;17.48;9.85;;;;;;;1.48;82.95;95486.47;5090622;28;20118;-70
2021/12/06 01:40:11;;;;;;;19.50;11.02;;;;;;;1.53;82.76;95499.84;5090779;28;20101;-69
2021/12/06 01:42:39;;;;;;;17.02;9.63;;;;;;;1.53;82.85;95499.84;5091071;28;20055;-70
2021/12/06 01:45:08;;;;;;;18.58;10.57;;;;;;;1.58;83.19;95499.81;5090353;28;20396;-69
2021/12/06 01:47:38;;;;;;;17.52;10.25;;;;;;;1.60;83.02;95505.69;5091005;28;20059;-69
2021/12/06 01:50:08;;;;;;;17.17;9.43;;;;;;;1.61;83.11;95506.50;5090312;28;20055;-71
2021/12/06 01:52:38;;;;;;;19.17;10.48;;;;;;;1.62;83.10;95505.41;5090803;28;20134;-72
2021/12/06 01:55:07;;;;;;;17.83;10.30;;;;;;;1.67;82.90;95503.50;5090213;28;20051;-71
2021/12/06 01:57:34;;;;;;;19.20;10.65;;;;;;;1.69;83.03;95504.00;5090598;28;20055;-71
2021/12/06 02:00:04;;;;;;;17.48;10.48;;;;;;;1.72;82.69;95508.81;5090921;28;20063;-71
2021/12/06 02:02:30;;;;;;;19.13;10.07;;;;;;;1.71;82.73;95507.19;5090231;28;20047;-72
2021/12/06 02:04:58;;;;;;;18.38;10.95;;;;;;;1.67;82.55;95506.19;5090643;28;20059;-71
2021/12/06 02:07:27;;;;;;;20.92;11.18;;;;;;;1.70;82.19;95510.97;5089794;28;20048;-70
2021/12/06 02:09:56;;;;;;;18.90;9.95;;;;;;;1.69;82.19;95508.56;5090528;28;20051;-70
2021/12/06 02:12:26;;;;;;;21.40;11.90;;;;;;;1.59;82.23;95498.72;5090028;28;20471;-70
2021/12/06 02:14:58;;;;;;;20.38;12.25;;;;;;;1.53;82.69;95499.84;5090379;28;20410;-72
2021/12/06 02:17:30;;;;;;;25.90;11.93;;;;;;;1.56;82.88;95505.44;5089718;28;20196;-69
2021/12/06 02:20:04;;;;;;;25.27;12.93;;;;;;;1.59;83.05;95501.41;5088915;28;20075;-70
2021/12/06 02:22:35;;;;;;;23.38;12.85;;;;;;;1.64;83.33;95509.41;5089998;28;20402;-70
2021/12/06 02:25:03;;;;;;;22.88;12.50;;;;;;;1.70;83.46;95505.59;5090231;28;20044;-70
2021/12/06 02:27:30;;;;;;;26.10;12.10;;;;;;;1.74;83.10;95517.38;5089442;28;20048;-70
2021/12/06 02:30:00;;;;;;;23.63;12.35;;;;;;;1.75;83.06;95521.66;5090177;28;20060;-70
2021/12/06 02:32:27;;;;;;;36.13;14.02;;;;;;;1.77;83.05;95511.44;5089885;28;20085;-69
2021/12/06 02:34:57;;;;;;;30.35;14.90;;;;;;;1.76;83.17;95520.56;5089786;28;20044;-69
2021/12/06 02:37:27;;;;;;;35.35;13.73;;;;;;;1.78;83.10;95529.16;5089038;28;20051;-70
2021/12/06 02:39:55;;;;;;;42.97;14.50;;;;;;;1.74;83.11;95525.44;5089717;28;20134;-72
2021/12/06 02:42:24;;;;;;;39.33;13.23;;;;;;;1.75;83.18;95529.72;5089457;28;20423;-70
2021/12/06 02:44:51;;;;;;;63.53;14.98;;;;;;;1.66;83.30;95525.22;5089796;28;20063;-69
2021/12/06 02:47:19;;;;;;;52.25;14.27;;;;;;;1.65;83.47;95523.63;5089221;28;20044;-70
2021/12/06 02:49:46;;;;;;;48.67;15.23;;;;;;;1.68;83.87;95529.25;5089860;28;20495;-70
2021/12/06 02:52:13;;;;;;;43.35;14.50;;;;;;;1.68;83.73;95539.97;5089070;28;20052;-70
2021/12/06 02:54:42;;;;;;;43.35;15.15;;;;;;;1.70;83.71;95535.13;5089487;28;20052;-70
2021/12/06 02:57:21;;;;;;;46.53;13.45;;;;;;;1.72;83.66;95540.19;5088944;28;20063;-70
2021/12/06 02:59:49;;;;;;;35.42;14.63;;;;;;;1.77;83.52;95538.28;5089555;28;20051;-69
2021/12/06 03:02:18;;;;;;;40.03;14.90;;;;;;;1.65;84.02;95539.72;5088810;28;20083;-69
2021/12/06 03:04:45;;;;;;;40.90;15.20;;;;;;;1.67;84.29;95543.75;5089308;28;20056;-70
2021/12/06 03:07:12;;;;;;;38.50;14.45;;;;;;;1.71;84.23;95542.09;5088790;28;20044;-70
2021/12/06 03:09:41;;;;;;;39.53;14.65;;;;;;;1.73;84.23;95557.94;5089061;28;20071;-70
2021/12/06 03:12:12;;;;;;;41.65;15.30;;;;;;;1.75;84.22;95556.56;5088830;28;20059;-70
2021/12/06 03:14:41;;;;;;;42.15;14.80;;;;;;;1.80;84.05;95559.19;5089129;28;20048;-70
2021/12/06 03:17:12;;;;;;;45.90;16.33;;;;;;;1.81;84.04;95566.16;5088561;28;20048;-70
2021/12/06 03:19:40;;;;;;;40.92;14.48;;;;;;;1.86;83.78;95567.22;5089047;28;20051;-70
2021/12/06 03:22:09;;;;;;;39.50;14.85;;;;;;;1.85;83.99;95568.28;5088314;28;20055;-70
2021/12/06 03:24:36;;;;;;;45.78;15.00;;;;;;;1.87;84.09;95574.16;5089218;28;20059;-70
2021/12/06 03:27:03;;;;;;;40.72;14.35;;;;;;;1.88;84.04;95570.41;5088723;28;20056;-70
2021/12/06 03:29:31;;;;;;;48.67;15.55;;;;;;;1.92;83.90;95574.94;5089072;28;20060;-70
2021/12/06 03:31:58;;;;;;;47.97;15.60;;;;;;;1.91;82.78;95575.22;5088687;28;20051;-70
2021/12/06 03:34:26;;;;;;;59.30;17.52;;;;;;;1.87;82.90;95580.34;5087373;28;20054;-70
2021/12/06 03:36:54;;;;;;;60.90;16.35;;;;;;;1.81;82.89;95581.47;5088042;28;20052;-70
2021/12/06 03:39:24;;;;;;;60.20;15.18;;;;;;;1.80;82.98;95579.88;5087380;28;20506;-70
2021/12/06 03:41:53;;;;;;;64.90;17.35;;;;;;;1.77;83.55;95586.59;5087905;28;20043;-70
2021/12/06 03:44:21;;;;;;;53.70;15.93;;;;;;;1.82;83.64;95589.22;5085682;28;20047;-70
2021/12/06 03:46:50;;;;;;;53.80;16.20;;;;;;;1.82;83.54;95583.88;5087769;28;20082;-70
2021/12/06 03:49:18;;;;;;;53.17;16.33;;;;;;;1.87;83.75;95579.53;5087231;28;20051;-70
2021/12/06 03:51:46;;;;;;;44.75;15.80;;;;;;;1.87;83.26;95590.28;5087522;28;20052;-70
2021/12/06 03:54:18;;;;;;;43.00;16.02;;;;;;;1.88;83.33;95591.88;5088104;28;20044;-70
2021/12/06 03:56:45;;;;;;;43.30;16.42;;;;;;;1.90;83.71;95595.09;5087402;28;20056;-69
2021/12/06 03:59:12;;;;;;;48.05;16.95;;;;;;;1.87;83.43;95592.97;5087571;28;20052;-70
2021/12/06 04:01:39;;;;;;;55.30;16.55;;;;;;;1.83;83.69;95590.84;5087475;28;20039;-70
2021/12/06 04:04:08;;;;;;;51.17;16.92;;;;;;;1.86;83.73;95594.06;5087370;28;20060;-69
2021/12/06 04:06:36;;;;;;;45.97;16.33;;;;;;;1.85;84.11;95593.25;5087639;28;20071;-69
2021/12/06 04:09:05;;;;;;;47.75;16.08;;;;;;;1.86;84.06;95596.75;5087347;28;20048;-69
2021/12/06 04:11:32;;;;;;;49.70;15.30;;;;;;;1.90;83.94;95605.84;5087886;28;20048;-69
2021/12/06 04:13:58;;;;;;;46.20;16.73;;;;;;;1.89;83.58;95605.03;5088012;28;20052;-69
2021/12/06 04:16:25;;;;;;;46.15;16.15;;;;;;;1.90;83.90;95608.53;5087140;28;20055;-69
2021/12/06 04:18:52;;;;;;;41.50;14.43;;;;;;;1.89;83.35;95602.34;5088062;28;20503;-69
2021/12/06 04:21:20;;;;;;;41.65;16.08;;;;;;;1.88;83.41;95607.97;5087619;28;20173;-69
2021/12/06 04:23:47;;;;;;;40.13;16.13;;;;;;;1.91;83.07;95604.75;5088083;28;20048;-69
2021/12/06 04:26:14;;;;;;;40.28;15.07;;;;;;;1.82;82.79;95610.72;5087570;28;20048;-72
2021/12/06 04:28:47;;;;;;;46.28;15.98;;;;;;;1.82;83.39;95608.03;5087734;28;20044;-69
2021/12/06 04:31:14;;;;;;;47.20;15.75;;;;;;;1.82;83.32;95613.38;5087618;28;20139;-70
2021/12/06 04:33:40;;;;;;;53.75;16.00;;;;;;;1.78;83.54;95623.09;5088028;28;20051;-70
2021/12/06 04:36:07;;;;;;;51.85;15.05;;;;;;;1.73;83.46;95628.50;5087530;28;20498;-70
2021/12/06 04:38:35;;;;;;;66.88;14.75;;;;;;;1.63;83.82;95630.47;5087672;28;20052;-69
2021/12/06 04:41:02;;;;;;;46.95;13.63;;;;;;;1.58;84.02;95622.44;5087329;28;20608;-70
2021/12/06 04:43:29;;;;;;;42.70;14.10;;;;;;;1.52;83.97;95627.06;5087477;28;20578;-70
2021/12/06 04:45:55;;;;;;;40.42;14.13;;;;;;;1.52;84.37;95627.84;5087701;28;20056;-70
2021/12/06 04:48:22;;;;;;;38.00;14.50;;;;;;;1.54;84.69;95628.38;5087270;28;20056;-70
2021/12/06 04:50:48;;;;;;;38.50;13.75;;;;;;;1.52;84.59;95632.41;5087509;28;20044;-69
2021/12/06 04:53:18;;;;;;;45.63;15.30;;;;;;;1.57;84.73;95635.06;5087430;28;20048;-70
2021/12/06 04:55:49;;;;;;;65.25;17.40;;;;;;;1.60;84.66;95631.81;5087573;28;20067;-70
2021/12/06 04:58:21;;;;;;;45.20;15.68;;;;;;;1.58;84.41;95638.56;5087329;28;20449;-70
2021/12/06 05:00:51;;;;;;;49.33;16.25;;;;;;;1.53;84.50;95636.69;5089615;28;20051;-70
2021/12/06 05:03:18;;;;;;;74.95;16.90;;;;;;;1.45;84.53;95642.63;5091548;28;20486;-72
2021/12/06 05:05:49;;;;;;;57.45;16.30;;;;;;;1.32;84.57;95645.94;5091803;28;20689;-72
2021/12/06 05:08:18;;;;;;;45.05;14.70;;;;;;;1.19;85.03;95645.44;5090987;28;20422;-69
2021/12/06 05:10:47;;;;;;;40.67;15.55;;;;;;;1.13;85.49;95651.91;5091011;28;20051;-71
2021/12/06 05:13:14;;;;;;;40.67;14.95;;;;;;;1.10;85.77;95646.28;5090530;28;20044;-71
2021/12/06 05:15:40;;;;;;;38.80;14.95;;;;;;;1.15;86.28;95649.78;5091274;28;20047;-72
2021/12/06 05:18:07;;;;;;;46.17;16.33;;;;;;;1.14;86.30;95658.88;5090502;28;20048;-71
2021/12/06 05:20:34;;;;;;;53.85;16.42;;;;;;;1.05;86.12;95660.56;5091284;28;20052;-71
2021/12/06 05:23:01;;;;;;;42.28;14.18;;;;;;;0.98;86.46;95654.66;5091069;28;20127;-71
2021/12/06 05:25:27;;;;;;;44.05;15.32;;;;;;;1.02;86.77;95661.09;5090615;28;20055;-71
2021/12/06 05:27:58;;;;;;;43.80;15.68;;;;;;;1.00;86.81;95668.59;5090734;28;20059;-70
2021/12/06 05:30:25;;;;;;;41.85;15.32;;;;;;;1.04;87.09;95666.97;5090407;28;20568;-71
2021/12/06 05:32:53;;;;;;;51.55;13.88;;;;;;;1.07;87.01;95677.16;5091059;28;20627;-71
2021/12/06 05:35:21;;;;;;;48.00;14.80;;;;;;;1.06;86.96;95672.88;5090358;28;20518;-71
2021/12/06 05:37:53;;;;;;;37.15;14.27;;;;;;;1.09;86.86;95683.03;5090633;28;20048;-71
2021/12/06 05:40:23;;;;;;;40.78;14.48;;;;;;;1.13;86.78;95685.97;5090572;28;20052;-71
2021/12/06 05:42:50;;;;;;;34.70;13.20;;;;;;;1.13;86.28;95694.81;5091003;28;20503;-71
2021/12/06 05:45:21;;;;;;;35.65;12.85;;;;;;;1.11;86.40;95702.34;5089672;28;20073;-71
2021/12/06 05:47:48;;;;;;;41.60;14.60;;;;;;;1.12;86.34;95703.94;5090507;28;20052;-71
2021/12/06 05:50:16;;;;;;;52.92;15.88;;;;;;;1.14;86.47;95712.50;5090224;28;20059;-71
2021/12/06 05:52:43;;;;;;;49.47;16.00;;;;;;;1.13;86.51;95716.28;5090658;28;20066;-69
2021/12/06 05:55:11;;;;;;;49.35;15.77;;;;;;;1.06;86.57;95710.41;5090318;28;20055;-69
2021/12/06 05:57:38;;;;;;;52.05;15.35;;;;;;;0.98;87.08;95716.31;5090430;28;20074;-72
2021/12/06 06:00:08;;;;;;;46.33;16.58;;;;;;;0.94;87.43;95717.94;5090198;28;20526;-69
2021/12/06 06:02:36;;;;;;;58.33;16.58;;;;;;;0.91;87.76;95727.34;5090427;28;20052;-69
2021/12/06 06:05:02;;;;;;;51.72;17.13;;;;;;;0.93;88.18;95735.09;5090339;28;20071;-73
2021/12/06 06:07:29;;;;;;;47.28;16.75;;;;;;;0.95;88.28;95741.00;5090216;28;20100;-72
2021/12/06 06:09:55;;;;;;;49.35;16.70;;;;;;;0.98;88.21;95745.81;5089765;28;20052;-73
2021/12/06 06:12:22;;;;;;;45.65;15.90;;;;;;;1.00;88.15;95751.72;5089026;28;20051;-75
2021/12/06 06:14:48;;;;;;;39.42;13.25;;;;;;;0.98;87.79;95751.16;5090076;28;20415;-74
2021/12/06 06:17:18;;;;;;;41.58;14.73;;;;;;;0.94;87.63;95760.81;5089214;28;20453;-73
2021/12/06 06:19:50;;;;;;;36.72;13.98;;;;;;;0.92;87.86;95762.97;5090392;28;20070;-71
2021/12/06 06:22:16;;;;;;;36.03;14.02;;;;;;;0.97;88.09;95762.97;5089163;28;20060;-72
2021/12/06 06:24:43;;;;;;;44.60;15.30;;;;;;;1.02;88.01;95762.97;5090298;28;20399;-72
2021/12/06 06:27:10;;;;;;;44.72;15.35;;;;;;;1.08;87.96;95777.97;5089307;28;20051;-74
2021/12/06 06:29:37;;;;;;;40.92;14.65;;;;;;;1.12;87.70;95776.34;5090315;28;20438;-72
2021/12/06 06:32:05;;;;;;;45.65;14.70;;;;;;;1.18;87.57;95788.66;5089664;28;20075;-71
2021/12/06 06:34:31;;;;;;;39.47;13.80;;;;;;;1.22;87.68;95795.09;5090339;28;20127;-72
2021/12/06 06:37:00;;;;;;;42.85;14.68;;;;;;;1.26;87.97;95782.75;5090007;28;20044;-72
2021/12/06 06:39:27;;;;;;;45.42;15.73;;;;;;;1.35;87.23;95792.91;5089674;28;20714;-72
2021/12/06 06:41:54;;;;;;;48.13;16.20;;;;;;;1.36;86.63;95791.81;5088598;28;20051;-72
2021/12/06 06:44:22;;;;;;;54.45;16.50;;;;;;;1.38;86.43;95797.75;5089186;28;20556;-72
2021/12/06 06:46:49;;;;;;;46.83;15.82;;;;;;;1.35;86.44;95795.59;5089743;28;20055;-72
2021/12/06 06:49:17;;;;;;;58.88;17.33;;;;;;;1.41;86.23;95794.50;5089523;28;20048;-72
2021/12/06 06:51:46;;;;;;;48.28;16.95;;;;;;;1.35;85.99;95799.06;5089658;28;20048;-73
2021/12/06 06:54:14;;;;;;;51.42;17.27;;;;;;;1.33;86.16;95805.81;5089291;28;20044;-72
2021/12/06 06:56:40;;;;;;;50.85;17.50;;;;;;;1.35;86.24;95796.38;5089474;28;20101;-72
2021/12/06 06:59:07;;;;;;;45.67;15.95;;;;;;;1.29;86.18;95810.91;5088955;28;20423;-73
2021/12/06 07:01:35;;;;;;;49.90;16.90;;;;;;;1.23;86.54;95814.66;5089721;28;20047;-74
2021/12/06 07:04:01;;;;;;;45.22;16.52;;;;;;;1.26;86.11;95816.81;5089087;28;20063;-72
2021/12/06 07:06:29;;;;;;;40.33;16.00;;;;;;;1.15;86.17;95826.78;5089410;28;20055;-73
2021/12/06 07:08:57;;;;;;;38.88;15.63;;;;;;;1.14;86.56;95833.19;5089485;28;20177;-74
2021/12/06 07:11:27;;;;;;;48.42;16.70;;;;;;;1.14;87.02;95835.88;5088839;28;20553;-74
2021/12/06 07:13:54;;;;;;;42.60;17.42;;;;;;;1.12;87.24;95838.03;5089291;28;20051;-74
2021/12/06 07:16:21;;;;;;;47.72;15.10;;;;;;;1.12;86.99;95838.03;5088451;28;20411;-74
2021/12/06 07:18:47;;;;;;;40.90;13.60;;;;;;;1.17;87.13;95846.06;5089141;28;20063;-73
2021/12/06 07:21:14;;;;;;;58.72;15.07;;;;;;;1.17;86.45;95846.06;5088292;28;20056;-74
2021/12/06 07:23:41;;;;;;;38.90;14.55;;;;;;;1.12;86.40;95848.75;5088027;28;20048;-74
2021/12/06 07:26:08;;;;;;;43.38;13.70;;;;;;;1.07;86.73;95850.63;5088311;28;20058;-73
2021/12/06 07:28:36;;;;;;;42.38;15.10;;;;;;;1.03;87.19;95851.16;5088738;28;20059;-74
2021/12/06 07:31:05;;;;;;;42.60;14.63;;;;;;;1.10;87.42;95856.28;5088455;28;20044;-73
2021/12/06 07:33:32;;;;;;;41.80;13.80;;;;;;;1.11;86.83;95852.50;5088769;28;20139;-74
2021/12/06 07:35:59;;;;;;;38.13;13.52;;;;;;;1.06;86.70;95859.75;5088721;28;20048;-73
2021/12/06 07:38:25;;;;;;;37.60;13.60;;;;;;;1.08;87.27;95857.59;5087704;28;20044;-74
2021/12/06 07:40:52;;;;;;;43.20;15.40;;;;;;;1.06;86.89;95852.50;5088698;28;20180;-74
2021/12/06 07:43:19;;;;;;;40.88;14.48;;;;;;;1.08;87.21;95852.25;5087750;28;20120;-73
2021/12/06 07:45:47;;;;;;;42.65;14.45;;;;;;;1.11;87.30;95857.88;5088716;28;20052;-74
2021/12/06 07:48:15;;;;;;;55.85;15.95;;;;;;;1.13;87.35;95852.22;5087978;28;20450;-74
2021/12/06 07:50:41;;;;;;;45.22;15.18;;;;;;;1.12;87.29;95847.94;5088726;28;20047;-73
2021/12/06 07:53:08;;;;;;;50.50;15.45;;;;;;;1.14;87.43;95856.50;5087756;28;20040;-73
2021/12/06 07:55:35;;;;;;;53.15;16.25;;;;;;;1.11;87.29;95857.88;5088543;28;20054;-74
2021/12/06 07:58:02;;;;;;;57.35;17.58;;;;;;;1.16;87.49;95859.75;5087936;28;20047;-70
2021/12/06 08:00:31;;;;;;;46.90;16.38;;;;;;;1.17;87.48;95862.16;5088368;28;20456;-72
2021/12/06 08:03:00;;;;;;;41.05;14.00;;;;;;;1.11;86.98;95867.81;5088271;28;20048;-72
2021/12/06 08:05:37;;;;;;;40.42;13.90;;;;;;;1.09;86.95;95870.72;5087868;28;20077;-74
2021/12/06 08:08:07;;;;;;;40.10;14.40;;;;;;;1.00;87.12;95873.16;5087448;28;20062;-72
2021/12/06 08:10:36;;;;;;;41.95;15.40;;;;;;;1.00;87.63;95872.38;5088319;28;20044;-71
2021/12/06 08:13:03;;;;;;;53.10;16.55;;;;;;;1.04;88.05;95876.09;5087273;28;20418;-71
2021/12/06 08:15:30;;;;;;;47.58;15.95;;;;;;;1.10;87.91;95872.38;5088108;28;20101;-72
2021/12/06 08:17:57;;;;;;;41.10;14.70;;;;;;;1.07;87.67;95877.44;5088032;28;20048;-72
2021/12/06 08:20:25;;;;;;;43.00;15.57;;;;;;;1.03;87.99;95882.53;5087703;28;20044;-72
2021/12/06 08:22:52;;;;;;;43.92;14.15;;;;;;;1.04;87.95;95886.81;5087737;28;20044;-74
2021/12/06 08:25:19;;;;;;;41.60;14.13;;;;;;;1.03;87.86;95893.25;5087476;28;20152;-75
2021/12/06 08:27:45;;;;;;;35.28;14.32;;;;;;;1.01;88.12;95893.53;5087701;28;20130;-71
2021/12/06 08:30:14;;;;;;;40.40;13.70;;;;;;;1.04;88.38;95900.22;5087438;28;20048;-68
2021/12/06 08:32:41;;;;;;;36.78;13.75;;;;;;;1.01;87.96;95896.22;5087718;28;20051;-75
2021/12/06 08:35:09;;;;;;;36.17;13.77;;;;;;;0.99;88.31;95902.91;5086954;28;20052;-72
2021/12/06 08:37:37;;;;;;;41.78;15.02;;;;;;;0.93;88.37;95898.63;5087529;28;20607;-72
2021/12/06 08:40:04;;;;;;;40.92;15.23;;;;;;;0.88;88.76;95906.66;5087383;28;20058;-75
2021/12/06 08:42:31;;;;;;;46.10;16.00;;;;;;;0.95;89.25;95904.53;5087700;28;20048;-74
2021/12/06 08:44:57;;;;;;;39.53;15.48;;;;;;;1.02;89.19;95908.53;5087442;28;20060;-79
2021/12/06 08:47:24;;;;;;;43.03;15.57;;;;;;;1.00;88.70;95915.25;5087108;28;20052;-77
2021/12/06 08:49:51;;;;;;;37.55;15.30;;;;;;;0.93;88.61;95914.69;5087921;28;20082;-69
2021/12/06 08:52:18;;;;;;;46.28;16.40;;;;;;;0.95;88.94;95917.94;5086911;28;20056;-73
2021/12/06 08:54:46;;;;;;;41.55;16.17;;;;;;;0.99;88.84;95925.19;5087870;28;20052;-74
2021/12/06 08:57:12;;;;;;;40.90;16.10;;;;;;;0.97;88.90;95916.59;5086807;28;20052;-74
2021/12/06 08:59:39;;;;;;;38.78;15.45;;;;;;;1.09;89.08;95923.56;5087518;28;20507;-73
2021/12/06 09:02:06;;;;;;;40.25;14.52;;;;;;;1.22;89.30;95921.16;5087171;28;20061;-73
2021/12/06 09:04:37;;;;;;;40.55;14.82;;;;;;;1.21;88.21;95922.22;5087487;28;20629;-73
2021/12/06 09:07:10;;;;;;;44.92;16.38;;;;;;;1.23;88.96;95930.81;5086890;28;20052;-68
2021/12/06 09:09:37;;;;;;;39.67;16.50;;;;;;;1.36;88.81;95928.63;5087583;28;20773;-72
2021/12/06 09:12:06;;;;;;;35.63;15.10;;;;;;;1.29;88.11;95934.28;5087168;28;20083;-72
2021/12/06 09:14:32;;;;;;;35.42;14.52;;;;;;;1.28;87.95;95938.84;5087381;28;20059;-72
2021/12/06 09:16:58;;;;;;;35.75;14.80;;;;;;;1.28;87.88;95946.09;5087182;28;20048;-72
2021/12/06 09:19:25;;;;;;;35.63;14.18;;;;;;;1.21;87.87;95943.69;5086993;28;20051;-72
2021/12/06 09:21:51;;;;;;;35.40;14.57;;;;;;;1.09;88.24;95945.81;5087350;28;20051;-71
2021/12/06 09:24:20;;;;;;;35.95;15.02;;;;;;;1.07;88.70;95942.59;5087002;28;20056;-73
2021/12/06 09:26:48;;;;;;;33.22;14.48;;;;;;;1.00;88.62;95953.59;5087421;28;20044;-73
2021/12/06 09:29:17;;;;;;;30.67;14.90;;;;;;;1.04;89.34;95948.50;5086907;28;20456;-73
2021/12/06 09:31:44;;;;;;;34.28;14.20;;;;;;;1.14;89.56;95953.84;5087588;28;20074;-73
2021/12/06 09:34:12;;;;;;;37.35;15.98;;;;;;;1.26;89.74;95946.38;5087067;28;20043;-73
2021/12/06 09:36:38;;;;;;;35.17;15.55;;;;;;;1.35;89.31;95948.50;5087296;28;20055;-74
2021/12/06 09:39:06;;;;;;;40.13;16.92;;;;;;;1.44;88.79;95947.69;5087109;28;20402;-71
2021/12/06 09:41:33;;;;;;;39.35;15.00;;;;;;;1.51;88.55;95953.59;5087235;28;20450;-71
2021/12/06 09:44:02;;;;;;;32.78;14.50;;;;;;;1.56;88.30;95952.75;5087116;28;20518;-72
2021/12/06 09:46:35;;;;;;;35.35;16.13;;;;;;;1.65;88.31;95948.47;5087078;28;20051;-71
2021/12/06 09:49:03;;;;;;;36.20;16.38;;;;;;;1.73;88.60;95952.50;5090632;28;20051;-69
2021/12/06 09:51:30;;;;;;;36.25;16.42;;;;;;;1.78;88.13;95955.97;5090586;28;20131;-72
2021/12/06 09:53:58;;;;;;;31.67;14.93;;;;;;;1.81;86.75;95950.03;5090590;28;20093;-73
2021/12/06 09:56:29;;;;;;;37.08;16.05;;;;;;;1.72;85.62;95957.06;5089960;28;20058;-73
2021/12/06 09:58:57;;;;;;;31.23;14.23;;;;;;;1.69;86.18;95964.84;5090366;28;20588;-73
2021/12/06 10:01:27;;;;;;;33.83;15.27;;;;;;;1.71;86.75;95963.47;5090431;28;20507;-73
2021/12/06 10:03:59;;;;;;;33.42;14.75;;;;;;;1.83;86.80;95955.97;5090214;28;20044;-72
2021/12/06 10:06:27;;;;;;;30.52;14.32;;;;;;;1.83;85.67;95966.69;5090018;28;20054;-71
2021/12/06 10:08:55;;;;;;;32.40;14.63;;;;;;;1.77;85.83;95962.41;5090126;28;20052;-73
2021/12/06 10:11:25;;;;;;;30.17;13.85;;;;;;;1.75;86.24;95959.19;5090087;28;20492;-73
2021/12/06 10:13:53;;;;;;;33.85;15.45;;;;;;;1.78;86.33;95958.66;5089859;28;20040;-73
2021/12/06 10:16:21;;;;;;;40.63;15.77;;;;;;;1.85;86.23;95962.94;5089726;28;20052;-73
2021/12/06 10:18:48;;;;;;;34.95;16.50;;;;;;;1.94;86.72;95962.13;5090633;28;20518;-73
2021/12/06 10:21:16;;;;;;;36.83;15.45;;;;;;;2.03;86.64;95965.03;5089911;28;20052;-71
2021/12/06 10:23:43;;;;;;;34.95;16.17;;;;;;;2.05;86.20;95958.31;5090100;28;20070;-72
2021/12/06 10:26:12;;;;;;;38.08;16.65;;;;;;;2.15;86.09;95957.50;5089578;28;20055;-72
2021/12/06 10:28:42;;;;;;;34.78;15.50;;;;;;;2.16;85.68;95959.09;5090165;28;20047;-71
2021/12/06 10:31:11;;;;;;;32.00;14.65;;;;;;;2.23;84.77;95948.03;5089600;28;20511;-71
2021/12/06 10:33:40;;;;;;;36.63;15.90;;;;;;;2.28;84.16;95948.03;5089886;28;20039;-71
2021/12/06 10:36:09;;;;;;;35.47;15.98;;;;;;;2.31;83.68;95942.13;5089441;28;20055;-71
2021/12/06 10:38:39;;;;;;;33.67;15.85;;;;;;;2.29;83.58;95942.38;5089887;28;20404;-71
2021/12/06 10:41:08;;;;;;;33.45;14.88;;;;;;;2.28;83.56;95945.34;5089795;28;20040;-71
2021/12/06 10:43:36;;;;;;;33.60;15.45;;;;;;;2.17;83.81;95949.94;5089498;28;20043;-71
2021/12/06 10:46:04;;;;;;;34.63;15.63;;;;;;;2.14;84.33;95947.00;5089191;28;20518;-71
2021/12/06 10:48:32;;;;;;;34.55;15.93;;;;;;;2.02;84.60;95952.69;5089312;28;20051;-72
2021/12/06 10:51:01;;;;;;;37.50;17.13;;;;;;;1.86;84.85;95957.28;5089755;28;20105;-72
2021/12/06 10:53:32;;;;;;;39.65;17.13;;;;;;;1.74;85.30;95957.59;5109517;27;20047;-72
2021/12/06 10:56:00;;;;;;;43.17;19.02;;;;;;;1.72;85.92;95951.69;5109924;27;20058;-72
2021/12/06 10:58:29;;;;;;;39.25;17.17;;;;;;;1.71;85.90;95954.63;5109324;27;20498;-72
2021/12/06 11:00:58;;;;;;;38.95;17.02;;;;;;;1.75;86.59;95959.19;5109737;27;20051;-72
2021/12/06 11:03:28;;;;;;;41.08;18.30;;;;;;;1.70;85.87;95953.03;5109436;27;20047;-74
2021/12/06 11:05:59;;;;;;;32.60;15.98;;;;;;;1.67;86.15;95951.72;5109532;27;20130;-74
2021/12/06 11:08:26;;;;;;;40.83;18.15;;;;;;;1.73;85.88;95950.63;5109191;27;20048;-72
2021/12/06 11:10:56;;;;;;;41.47;17.92;;;;;;;1.77;85.97;95951.66;5109522;27;20047;-72
2021/12/06 11:13:27;;;;;;;36.50;17.80;;;;;;;1.87;85.77;95944.66;5108919;27;20051;-72
2021/12/06 11:16:07;;;;;;;39.25;17.45;;;;;;;1.93;85.46;95940.88;5109731;27;20055;-72
2021/12/06 11:18:40;;;;;;;36.67;16.45;;;;;;;1.98;85.40;95946.25;5109127;27;20040;-72
2021/12/06 11:21:19;;;;;;;38.05;17.58;;;;;;;1.92;84.90;95952.72;5108855;27;20058;-71
2021/12/06 11:24:13;;;;;;;44.55;17.30;;;;;;;1.92;85.60;95944.66;5109137;27;20410;-72
2021/12/06 11:26:43;;;;;;;37.45;17.35;;;;;;;1.99;85.88;95955.94;5109233;27;20051;-72
2021/12/06 11:29:16;;;;;;;41.88;18.10;;;;;;;2.09;85.76;95958.59;5108825;27;20383;-71
2021/12/06 11:31:49;;;;;;;37.88;17.92;;;;;;;2.09;85.22;95958.59;5109352;27;20395;-72
2021/12/06 11:34:17;;;;;;;38.25;17.42;;;;;;;2.10;85.06;95952.13;5108710;27;20473;-72
2021/12/06 11:36:44;;;;;;;37.20;17.90;;;;;;;2.12;85.71;95958.03;5108853;27;20043;-71
2021/12/06 11:39:14;;;;;;;39.53;18.08;;;;;;;2.14;84.93;95958.56;5108735;27;20055;-71